createdAt,value
2022-12-03T00:00:24.159Z,286.95
2022-12-03T00:01:31.080Z,285.95
2022-12-03T00:02:34.785Z,282.66
2022-12-03T00:03:41.043Z,277.25
2022-12-03T00:04:44.637Z,283.83
2022-12-03T00:05:50.668Z,286.69
2022-12-03T00:06:55.002Z,286.30
2022-12-03T00:08:01.350Z,298.95
2022-12-03T00:09:05.891Z,292.63
2022-12-03T00:10:15.036Z,288.73
2022-12-03T00:11:18.721Z,294.91
2022-12-03T00:12:27.553Z,292.79
2022-12-03T00:13:31.268Z,299.01
2022-12-03T00:14:42.886Z,301.34
2022-12-03T00:15:50.804Z,298.89
2022-12-03T00:16:56.957Z,303.78
2022-12-03T00:18:04.205Z,300.04
2022-12-03T00:19:09.147Z,301.06
2022-12-03T00:20:23.300Z,293.18
2022-12-03T00:21:26.831Z,295.04
2022-12-03T00:22:33.040Z,297.67
2022-12-03T00:23:41.917Z,299.69
2022-12-03T00:24:49.860Z,302.08
2022-12-03T00:25:53.535Z,307.45
2022-12-03T00:26:59.842Z,304.85
2022-12-03T00:28:03.548Z,307.51
2022-12-03T00:29:11.489Z,309.66
2022-12-03T00:30:15.405Z,302.61
2022-12-03T00:31:24.394Z,317.08
2022-12-03T00:32:28.073Z,311.01
2022-12-03T00:33:34.401Z,316.51
2022-12-03T00:34:38.701Z,323.17
2022-12-03T00:35:44.850Z,309.14
2022-12-03T00:36:49.185Z,321.14
2022-12-03T00:37:56.229Z,314.12
2022-12-03T00:38:59.918Z,308.41
2022-12-03T00:40:08.729Z,315.51
2022-12-03T00:41:12.394Z,316.90
2022-12-03T00:42:18.529Z,311.44
2022-12-03T00:43:23.141Z,313.31
2022-12-03T00:44:29.833Z,304.48
2022-12-03T00:45:37.142Z,312.94
2022-12-03T00:46:46.073Z,307.94
2022-12-03T00:47:53.154Z,311.73
2022-12-03T00:48:56.720Z,315.24
2022-12-03T00:50:02.931Z,313.97
2022-12-03T00:51:07.574Z,296.44
2022-12-03T00:52:15.161Z,309.95
2022-12-03T00:53:21.546Z,305.21
2022-12-03T00:54:31.893Z,314.80
2022-12-03T00:55:35.968Z,314.23
2022-12-03T00:56:43.012Z,309.35
2022-12-03T00:57:46.787Z,311.45
2022-12-03T00:58:53.275Z,293.13
2022-12-03T00:59:56.844Z,307.51
2022-12-03T01:01:03.034Z,308.46
2022-12-03T01:02:10.327Z,307.85
2022-12-03T01:03:16.635Z,316.00
2022-12-03T01:04:20.268Z,315.43
2022-12-03T01:05:26.489Z,310.82
2022-12-03T01:06:30.025Z,311.80
2022-12-03T01:07:37.805Z,319.50
2022-12-03T01:08:41.267Z,317.79
2022-12-03T01:09:47.613Z,331.17
2022-12-03T01:10:51.715Z,331.69
2022-12-03T01:11:59.628Z,375.77
2022-12-03T01:13:04.111Z,386.23
2022-12-03T01:14:14.397Z,370.99
2022-12-03T01:15:18.278Z,370.49
2022-12-03T01:16:24.517Z,349.24
2022-12-03T01:17:30.892Z,363.16
2022-12-03T01:18:38.147Z,364.70
2022-12-03T01:19:47.887Z,360.84
2022-12-03T01:20:54.550Z,368.75
2022-12-03T01:21:58.042Z,374.57
2022-12-03T01:23:04.221Z,362.52
2022-12-03T01:24:09.014Z,360.58
2022-12-03T01:25:15.566Z,357.86
2022-12-03T01:26:19.282Z,323.32
2022-12-03T01:27:25.471Z,330.83
2022-12-03T01:28:29.659Z,327.20
2022-12-03T01:29:36.797Z,336.94
2022-12-03T01:30:55.337Z,313.68
2022-12-03T01:32:14.345Z,306.32
2022-12-03T01:33:20.578Z,309.31
2022-12-03T01:34:26.816Z,304.91
2022-12-03T01:35:33.677Z,303.91
2022-12-03T01:36:40.829Z,304.30
2022-12-03T01:37:46.904Z,311.10
2022-12-03T01:38:50.577Z,302.59
2022-12-03T01:39:58.314Z,299.33
2022-12-03T01:41:11.465Z,297.15
2022-12-03T01:42:24.555Z,303.38
2022-12-03T01:43:31.067Z,297.17
2022-12-03T01:44:41.506Z,300.30
2022-12-03T01:45:47.456Z,304.88
2022-12-03T01:46:59.728Z,297.32
2022-12-03T01:48:03.534Z,287.56
2022-12-03T01:49:20.374Z,288.97
2022-12-03T01:50:35.986Z,302.12
2022-12-03T01:51:39.599Z,302.61
2022-12-03T01:52:47.272Z,300.94
2022-12-03T01:53:51.070Z,306.73
2022-12-03T01:55:01.459Z,296.03
2022-12-03T01:56:05.539Z,296.12
2022-12-03T01:57:25.297Z,292.29
2022-12-03T01:58:31.269Z,293.87
2022-12-03T01:59:42.460Z,286.81
2022-12-03T02:00:45.904Z,312.30
2022-12-03T02:01:52.393Z,295.72
2022-12-03T02:03:00.612Z,301.38
2022-12-03T02:04:08.043Z,304.29
2022-12-03T02:05:25.090Z,297.54
2022-12-03T02:06:31.325Z,297.37
2022-12-03T02:07:38.222Z,291.78
2022-12-03T02:08:41.981Z,292.36
2022-12-03T02:09:48.975Z,295.50
2022-12-03T02:10:52.949Z,303.99
2022-12-03T02:11:59.040Z,303.70
2022-12-03T02:13:09.339Z,296.78
2022-12-03T02:14:23.067Z,297.71
2022-12-03T02:15:27.995Z,281.33
2022-12-03T02:16:34.771Z,287.61
2022-12-03T02:17:39.952Z,293.93
2022-12-03T02:18:47.179Z,299.04
2022-12-03T02:19:53.846Z,296.31
2022-12-03T02:21:23.427Z,309.74
2022-12-03T02:22:43.758Z,307.53
2022-12-03T02:24:08.457Z,320.77
2022-12-03T02:25:23.579Z,316.05
2022-12-03T02:26:30.989Z,319.40
2022-12-03T02:27:34.850Z,341.86
2022-12-03T02:28:41.533Z,358.78
2022-12-03T02:29:45.523Z,337.41
2022-12-03T02:30:51.717Z,328.86
2022-12-03T02:31:56.564Z,329.39
2022-12-03T02:33:04.163Z,332.41
2022-12-03T02:34:11.791Z,318.83
2022-12-03T02:35:20.667Z,317.55
2022-12-03T02:36:24.783Z,315.31
2022-12-03T02:37:39.649Z,319.27
2022-12-03T02:38:48.625Z,291.96
2022-12-03T02:40:01.305Z,283.09
2022-12-03T02:41:34.570Z,282.10
2022-12-03T02:42:42.824Z,295.52
2022-12-03T02:43:47.627Z,300.37
2022-12-03T02:44:52.169Z,297.59
2022-12-03T02:46:04.601Z,298.10
2022-12-03T02:47:08.570Z,292.42
2022-12-03T02:48:21.267Z,292.71
2022-12-03T02:49:24.947Z,286.52
2022-12-03T02:50:37.086Z,296.01
2022-12-03T02:51:41.295Z,298.79
2022-12-03T02:52:51.080Z,299.78
2022-12-03T02:53:58.592Z,293.05
2022-12-03T02:55:10.239Z,285.33
2022-12-03T02:56:25.844Z,297.49
2022-12-03T02:57:29.835Z,282.97
2022-12-03T02:58:38.171Z,292.57
2022-12-03T02:59:45.470Z,295.68
2022-12-03T03:00:53.524Z,290.75
2022-12-03T03:01:57.572Z,290.82
2022-12-03T03:03:07.281Z,291.99
2022-12-03T03:04:11.044Z,292.91
2022-12-03T03:05:23.876Z,276.73
2022-12-03T03:06:27.537Z,287.69
2022-12-03T03:07:33.991Z,276.95
2022-12-03T03:08:43.352Z,284.10
2022-12-03T03:09:47.528Z,294.19
2022-12-03T03:10:57.172Z,287.99
2022-12-03T03:12:03.470Z,278.22
2022-12-03T03:13:15.235Z,285.12
2022-12-03T03:14:18.995Z,286.66
2022-12-03T03:15:27.423Z,281.13
2022-12-03T03:16:35.042Z,281.30
2022-12-03T03:17:42.196Z,289.89
2022-12-03T03:18:45.989Z,283.90
2022-12-03T03:19:52.356Z,285.26
2022-12-03T03:20:56.127Z,293.68
2022-12-03T03:22:03.694Z,280.74
2022-12-03T03:23:17.979Z,292.83
2022-12-03T03:24:25.726Z,285.76
2022-12-03T03:25:29.213Z,285.79
2022-12-03T03:26:35.570Z,287.22
2022-12-03T03:27:43.721Z,285.83
2022-12-03T03:28:54.971Z,281.97
2022-12-03T03:30:00.513Z,277.67
2022-12-03T03:31:12.332Z,278.88
2022-12-03T03:32:16.567Z,283.24
2022-12-03T03:33:24.389Z,273.74
2022-12-03T03:34:29.001Z,289.04
2022-12-03T03:35:35.535Z,292.78
2022-12-03T03:36:40.249Z,285.19
2022-12-03T03:37:46.534Z,295.66
2022-12-03T03:38:51.831Z,279.37
2022-12-03T03:39:59.075Z,291.63
2022-12-03T03:41:06.446Z,293.25
2022-12-03T03:42:12.813Z,278.44
2022-12-03T03:43:19.817Z,291.06
2022-12-03T03:44:27.773Z,289.22
2022-12-03T03:45:31.366Z,295.93
2022-12-03T03:46:40.043Z,307.05
2022-12-03T03:47:44.150Z,303.70
2022-12-03T03:48:52.661Z,289.80
2022-12-03T03:49:57.548Z,292.59
2022-12-03T03:51:09.701Z,289.52
2022-12-03T03:52:16.210Z,295.06
2022-12-03T03:53:23.345Z,297.52
2022-12-03T03:54:30.917Z,301.99
2022-12-03T03:55:35.956Z,289.17
2022-12-03T03:56:42.978Z,287.09
2022-12-03T03:57:47.695Z,287.92
2022-12-03T03:58:59.492Z,288.65
2022-12-03T04:00:06.320Z,291.92
2022-12-03T04:01:16.826Z,284.08
2022-12-03T04:02:25.081Z,282.01
2022-12-03T04:03:32.259Z,285.41
2022-12-03T04:04:37.884Z,288.79
2022-12-03T04:05:44.663Z,288.15
2022-12-03T04:06:50.399Z,280.30
2022-12-03T04:07:56.489Z,275.53
2022-12-03T04:09:00.015Z,293.13
2022-12-03T04:10:26.699Z,287.05
2022-12-03T04:11:46.041Z,302.12
2022-12-03T04:12:57.853Z,304.13
2022-12-03T04:14:07.254Z,318.75
2022-12-03T04:15:11.208Z,332.99
2022-12-03T04:16:18.373Z,337.69
2022-12-03T04:17:22.015Z,363.33
2022-12-03T04:18:41.503Z,352.25
2022-12-03T04:19:47.722Z,385.51
2022-12-03T04:20:51.412Z,383.69
2022-12-03T04:22:10.045Z,366.65
2022-12-03T04:23:16.323Z,364.55
2022-12-03T04:24:20.688Z,324.23
2022-12-03T04:25:39.177Z,338.15
2022-12-03T04:26:57.840Z,357.98
2022-12-03T04:28:19.046Z,353.55
2022-12-03T04:29:28.750Z,348.75
2022-12-03T04:30:32.181Z,344.66
2022-12-03T04:31:50.776Z,341.72
2022-12-03T04:33:09.289Z,329.81
2022-12-03T04:34:27.916Z,326.13
2022-12-03T04:35:46.806Z,329.12
2022-12-03T04:36:51.005Z,332.63
2022-12-03T04:37:58.038Z,311.66
2022-12-03T04:39:01.621Z,310.19
2022-12-03T04:40:29.860Z,307.57
2022-12-03T04:41:34.243Z,304.18
2022-12-03T04:42:40.370Z,306.45
2022-12-03T04:43:58.731Z,304.36
2022-12-03T04:45:08.300Z,303.77
2022-12-03T04:46:27.956Z,306.48
2022-12-03T04:47:40.359Z,294.71
2022-12-03T04:48:45.421Z,302.43
2022-12-03T04:49:54.289Z,308.85
2022-12-03T04:50:58.095Z,301.24
2022-12-03T04:52:04.457Z,311.79
2022-12-03T04:53:08.841Z,307.48
2022-12-03T04:54:14.804Z,307.43
2022-12-03T04:55:20.973Z,304.76
2022-12-03T04:56:24.608Z,308.25
2022-12-03T04:57:30.643Z,298.50
2022-12-03T04:58:35.153Z,308.59
2022-12-03T04:59:41.964Z,311.69
2022-12-03T05:00:48.121Z,310.83
2022-12-03T05:01:54.211Z,308.66
2022-12-03T05:02:57.873Z,299.01
2022-12-03T05:04:04.917Z,305.67
2022-12-03T05:05:10.995Z,319.19
2022-12-03T05:06:17.011Z,307.57
2022-12-03T05:07:23.135Z,310.37
2022-12-03T05:08:26.561Z,315.25
2022-12-03T05:09:33.775Z,311.51
2022-12-03T05:10:37.217Z,322.20
2022-12-03T05:11:45.629Z,315.47
2022-12-03T05:12:49.104Z,312.65
2022-12-03T05:13:55.158Z,317.40
2022-12-03T05:15:03.087Z,307.55
2022-12-03T05:16:09.656Z,313.51
2022-12-03T05:17:15.877Z,319.50
2022-12-03T05:18:19.431Z,320.64
2022-12-03T05:19:46.333Z,317.40
2022-12-03T05:20:53.690Z,320.99
2022-12-03T05:21:57.359Z,315.36
2022-12-03T05:23:03.436Z,306.89
2022-12-03T05:24:10.850Z,315.55
2022-12-03T05:25:15.808Z,312.20
2022-12-03T05:26:22.965Z,313.79
2022-12-03T05:27:26.790Z,309.18
2022-12-03T05:28:32.973Z,320.96
2022-12-03T05:29:36.659Z,328.12
2022-12-03T05:30:42.971Z,318.22
2022-12-03T05:31:50.077Z,329.57
2022-12-03T05:32:56.417Z,332.66
2022-12-03T05:34:00.005Z,334.62
2022-12-03T05:35:07.935Z,333.89
2022-12-03T05:36:11.817Z,312.49
2022-12-03T05:37:18.952Z,325.11
2022-12-03T05:38:23.650Z,338.20
2022-12-03T05:39:29.760Z,344.86
2022-12-03T05:40:33.265Z,335.40
2022-12-03T05:41:51.831Z,338.41
2022-12-03T05:43:01.532Z,354.66
2022-12-03T05:44:06.838Z,349.71
2022-12-03T05:45:13.880Z,349.54
2022-12-03T05:46:17.512Z,359.97
2022-12-03T05:47:26.396Z,366.08
2022-12-03T05:48:30.705Z,360.45
2022-12-03T05:49:36.993Z,349.75
2022-12-03T05:50:44.262Z,364.32
2022-12-03T05:51:58.424Z,362.07
2022-12-03T05:53:02.595Z,373.20
2022-12-03T05:54:09.614Z,385.57
2022-12-03T05:55:13.502Z,382.80
2022-12-03T05:56:19.657Z,371.21
2022-12-03T05:57:23.198Z,378.41
2022-12-03T05:58:29.384Z,372.36
2022-12-03T05:59:33.704Z,370.38
2022-12-03T06:00:42.984Z,362.56
2022-12-03T06:01:48.627Z,359.62
2022-12-03T06:02:58.691Z,354.09
2022-12-03T06:04:02.679Z,344.50
2022-12-03T06:05:14.096Z,351.04
2022-12-03T06:06:20.257Z,328.81
2022-12-03T06:07:23.671Z,346.64
2022-12-03T06:08:29.984Z,345.40
2022-12-03T06:09:34.754Z,340.30
2022-12-03T06:10:41.711Z,346.34
2022-12-03T06:11:45.163Z,352.57
2022-12-03T06:12:51.363Z,340.87
2022-12-03T06:13:54.998Z,338.01
2022-12-03T06:15:01.417Z,338.60
2022-12-03T06:16:06.561Z,344.27
2022-12-03T06:17:13.305Z,337.11
2022-12-03T06:18:22.070Z,331.77
2022-12-03T06:19:25.575Z,337.51
2022-12-03T06:20:31.706Z,340.03
2022-12-03T06:21:36.054Z,337.94
2022-12-03T06:22:42.268Z,346.55
2022-12-03T06:23:48.354Z,345.67
2022-12-03T06:24:52.503Z,346.60
2022-12-03T06:25:59.011Z,364.79
2022-12-03T06:27:05.108Z,357.80
2022-12-03T06:28:11.087Z,342.91
2022-12-03T06:29:14.521Z,337.70
2022-12-03T06:30:21.110Z,330.63
2022-12-03T06:31:24.560Z,340.94
2022-12-03T06:32:31.702Z,357.84
2022-12-03T06:33:37.779Z,370.55
2022-12-03T06:34:43.834Z,381.96
2022-12-03T06:35:49.531Z,379.45
2022-12-03T06:36:55.688Z,407.66
2022-12-03T06:38:00.078Z,378.33
2022-12-03T06:39:07.652Z,381.84
2022-12-03T06:40:13.614Z,382.76
2022-12-03T06:41:19.682Z,415.25
2022-12-03T06:42:23.168Z,438.03
2022-12-03T06:43:31.163Z,449.42
2022-12-03T06:44:34.749Z,428.59
2022-12-03T06:45:46.154Z,420.79
2022-12-03T06:46:51.186Z,419.12
2022-12-03T06:47:57.337Z,438.74
2022-12-03T06:49:04.815Z,412.46
2022-12-03T06:50:12.469Z,454.33
2022-12-03T06:51:16.203Z,434.66
2022-12-03T06:52:23.025Z,487.96
2022-12-03T06:53:26.601Z,414.01
2022-12-03T06:54:34.043Z,427.46
2022-12-03T06:55:37.787Z,436.52
2022-12-03T06:56:45.597Z,442.01
2022-12-03T06:57:52.039Z,403.82
2022-12-03T06:58:55.943Z,398.96
2022-12-03T07:00:03.751Z,384.94
2022-12-03T07:01:07.734Z,387.23
2022-12-03T07:02:15.659Z,380.15
2022-12-03T07:03:19.367Z,395.29
2022-12-03T07:04:28.305Z,407.87
2022-12-03T07:05:32.962Z,403.25
2022-12-03T07:06:39.265Z,388.60
2022-12-03T07:07:42.889Z,383.10
2022-12-03T07:08:49.025Z,392.22
2022-12-03T07:09:52.691Z,402.47
2022-12-03T07:11:01.613Z,398.05
2022-12-03T07:12:05.713Z,404.65
2022-12-03T07:13:12.223Z,399.00
2022-12-03T07:14:16.313Z,398.58
2022-12-03T07:15:22.386Z,391.18
2022-12-03T07:16:27.327Z,391.32
2022-12-03T07:17:35.143Z,390.71
2022-12-03T07:18:38.533Z,382.51
2022-12-03T07:19:47.405Z,389.55
2022-12-03T07:20:50.865Z,393.70
2022-12-03T07:22:02.068Z,403.19
2022-12-03T07:23:05.544Z,386.76
2022-12-03T07:24:12.585Z,401.47
2022-12-03T07:25:21.409Z,392.98
2022-12-03T07:26:29.630Z,387.51
2022-12-03T07:27:34.125Z,407.20
2022-12-03T07:28:40.342Z,405.04
2022-12-03T07:29:46.538Z,391.83
2022-12-03T07:30:50.173Z,388.35
2022-12-03T07:31:56.309Z,390.30
2022-12-03T07:33:00.716Z,385.31
2022-12-03T07:34:07.305Z,381.34
2022-12-03T07:35:14.008Z,373.85
2022-12-03T07:36:22.310Z,354.10
2022-12-03T07:37:28.385Z,359.04
2022-12-03T07:38:32.837Z,357.58
2022-12-03T07:39:38.998Z,348.81
2022-12-03T07:40:42.793Z,354.95
2022-12-03T07:41:48.930Z,360.22
2022-12-03T07:42:52.457Z,356.99
2022-12-03T07:43:59.959Z,369.25
2022-12-03T07:45:03.533Z,358.17
2022-12-03T07:46:10.254Z,395.28
2022-12-03T07:47:16.565Z,394.59
2022-12-03T07:48:21.317Z,387.29
2022-12-03T07:49:28.296Z,451.79
2022-12-03T07:50:34.429Z,514.82
2022-12-03T07:51:40.732Z,462.29
2022-12-03T07:52:44.428Z,486.82
2022-12-03T07:53:50.594Z,489.53
2022-12-03T07:54:55.021Z,448.48
2022-12-03T07:56:01.623Z,471.58
2022-12-03T07:57:07.933Z,418.70
2022-12-03T07:58:11.495Z,405.04
2022-12-03T07:59:18.080Z,400.31
2022-12-03T08:00:25.991Z,378.75
2022-12-03T08:01:32.320Z,394.51
2022-12-03T08:02:36.972Z,455.94
2022-12-03T08:03:43.292Z,433.95
2022-12-03T08:04:49.457Z,426.10
2022-12-03T08:05:58.984Z,403.10
2022-12-03T08:07:05.316Z,365.44
2022-12-03T08:08:09.029Z,351.47
2022-12-03T08:09:16.416Z,360.92
2022-12-03T08:10:20.029Z,385.03
2022-12-03T08:11:32.183Z,376.63
2022-12-03T08:12:42.862Z,395.22
2022-12-03T08:13:49.216Z,392.84
2022-12-03T08:14:53.282Z,382.50
2022-12-03T08:16:04.129Z,402.25
2022-12-03T08:17:13.591Z,368.63
2022-12-03T08:18:22.446Z,354.16
2022-12-03T08:19:27.295Z,371.82
2022-12-03T08:20:40.815Z,355.06
2022-12-03T08:21:50.509Z,355.58
2022-12-03T08:22:57.632Z,362.97
2022-12-03T08:24:18.390Z,371.69
2022-12-03T08:25:27.867Z,386.44
2022-12-03T08:26:34.021Z,363.06
2022-12-03T08:27:37.510Z,362.16
2022-12-03T08:28:44.624Z,373.36
2022-12-03T08:29:48.165Z,366.12
2022-12-03T08:31:06.203Z,358.02
2022-12-03T08:32:12.318Z,355.23
2022-12-03T08:33:31.339Z,361.21
2022-12-03T08:34:44.786Z,395.67
2022-12-03T08:35:51.387Z,400.64
2022-12-03T08:37:09.129Z,385.08
2022-12-03T08:38:13.983Z,378.22
2022-12-03T08:39:38.021Z,370.29
2022-12-03T08:40:49.266Z,360.35
2022-12-03T08:42:15.121Z,357.09
2022-12-03T08:43:25.880Z,358.69
2022-12-03T08:44:38.073Z,357.54
2022-12-03T08:45:46.139Z,336.54
2022-12-03T08:46:57.456Z,349.91
2022-12-03T08:48:23.323Z,348.90
2022-12-03T08:49:29.516Z,362.70
2022-12-03T08:50:39.971Z,346.53
2022-12-03T08:51:47.314Z,361.35
2022-12-03T08:52:57.837Z,361.26
2022-12-03T08:54:15.883Z,386.47
2022-12-03T08:55:36.367Z,355.00
2022-12-03T08:56:45.471Z,368.41
2022-12-03T08:57:53.310Z,375.45
2022-12-03T08:59:03.827Z,387.34
2022-12-03T09:00:21.192Z,384.88
2022-12-03T09:01:36.793Z,368.64
2022-12-03T09:02:51.361Z,378.62
2022-12-03T09:04:16.865Z,373.99
2022-12-03T09:05:28.056Z,371.74
2022-12-03T09:06:31.701Z,376.64
2022-12-03T09:07:38.056Z,382.61
2022-12-03T09:08:44.415Z,383.05
2022-12-03T09:09:52.488Z,379.63
2022-12-03T09:11:04.481Z,374.76
2022-12-03T09:12:12.178Z,373.87
2022-12-03T09:13:16.991Z,378.40
2022-12-03T09:14:24.782Z,379.24
2022-12-03T09:15:30.685Z,378.66
2022-12-03T09:16:36.979Z,369.97
2022-12-03T09:17:44.029Z,373.67
2022-12-03T09:18:48.850Z,361.49
2022-12-03T09:19:55.479Z,371.64
2022-12-03T09:21:00.011Z,378.84
2022-12-03T09:22:06.362Z,389.52
2022-12-03T09:23:13.714Z,367.21
2022-12-03T09:24:20.195Z,369.97
2022-12-03T09:25:26.369Z,379.60
2022-12-03T09:26:32.736Z,361.60
2022-12-03T09:27:38.913Z,350.15
2022-12-03T09:28:46.550Z,368.66
2022-12-03T09:29:53.161Z,367.76
2022-12-03T09:31:00.609Z,385.22
2022-12-03T09:32:11.486Z,358.89
2022-12-03T09:33:29.103Z,385.96
2022-12-03T09:34:37.826Z,388.65
2022-12-03T09:35:44.830Z,392.10
2022-12-03T09:36:51.446Z,371.12
2022-12-03T09:37:56.975Z,364.23
2022-12-03T09:39:03.338Z,363.15
2022-12-03T09:40:16.019Z,346.48
2022-12-03T09:41:20.997Z,361.32
2022-12-03T09:42:29.136Z,366.14
2022-12-03T09:45:16.010Z,371.80
2022-12-03T09:46:41.501Z,396.89
2022-12-03T09:47:55.017Z,410.09
2022-12-03T09:49:17.517Z,423.80
2022-12-03T09:50:30.333Z,415.29
2022-12-03T09:51:40.298Z,405.22
2022-12-03T09:52:47.225Z,410.38
2022-12-03T09:54:02.829Z,420.36
2022-12-03T09:55:24.005Z,405.71
2022-12-03T09:56:33.353Z,427.71
2022-12-03T09:57:43.120Z,435.64
2022-12-03T09:58:49.567Z,402.17
2022-12-03T09:59:58.842Z,431.82
2022-12-03T10:01:06.550Z,411.81
2022-12-03T10:02:22.953Z,434.00
2022-12-03T10:03:34.972Z,442.21
2022-12-03T10:04:41.336Z,417.18
2022-12-03T10:05:48.472Z,429.65
2022-12-03T10:06:55.728Z,419.71
2022-12-03T10:08:09.007Z,470.29
2022-12-03T10:09:21.953Z,416.65
2022-12-03T10:10:31.106Z,419.74
2022-12-03T10:11:39.507Z,425.45
2022-12-03T10:12:44.789Z,437.52
2022-12-03T10:13:53.275Z,423.36
2022-12-03T10:14:57.217Z,427.34
2022-12-03T10:16:04.898Z,417.49
2022-12-03T10:17:13.440Z,417.68
2022-12-03T10:18:25.365Z,415.63
2022-12-03T10:19:35.940Z,410.87
2022-12-03T10:20:42.165Z,421.45
2022-12-03T10:21:45.619Z,412.97
2022-12-03T10:22:52.879Z,453.75
2022-12-03T10:24:27.239Z,429.48
2022-12-03T10:25:35.205Z,418.95
2022-12-03T10:26:43.773Z,416.99
2022-12-03T10:28:02.229Z,398.95
2022-12-03T10:29:13.798Z,375.54
2022-12-03T10:30:27.321Z,391.25
2022-12-03T10:31:39.732Z,405.57
2022-12-03T10:32:49.648Z,404.67
2022-12-03T10:34:02.125Z,408.56
2022-12-03T10:35:14.532Z,395.90
2022-12-03T10:36:36.716Z,396.13
2022-12-03T10:38:09.385Z,382.12
2022-12-03T10:39:29.445Z,395.84
2022-12-03T10:40:47.212Z,402.88
2022-12-03T10:42:18.019Z,397.16
2022-12-03T10:43:28.525Z,422.70
2022-12-03T10:44:35.934Z,416.94
2022-12-03T10:45:43.344Z,430.86
2022-12-03T10:47:09.513Z,433.11
2022-12-03T10:48:16.927Z,436.92
2022-12-03T10:49:23.511Z,440.66
2022-12-03T10:50:27.073Z,466.77
2022-12-03T10:51:34.434Z,493.82
2022-12-03T10:52:38.477Z,471.75
2022-12-03T10:53:45.303Z,452.39
2022-12-03T10:54:53.874Z,421.84
2022-12-03T10:56:08.767Z,447.06
2022-12-03T10:57:16.981Z,430.85
2022-12-03T10:58:27.792Z,432.25
2022-12-03T10:59:35.260Z,442.12
2022-12-03T11:00:41.360Z,472.96
2022-12-03T11:01:48.517Z,432.90
2022-12-03T11:02:56.739Z,479.75
2022-12-03T11:04:08.213Z,465.23
2022-12-03T11:05:20.551Z,457.56
2022-12-03T11:06:24.473Z,479.87
2022-12-03T11:07:30.862Z,551.74
2022-12-03T11:08:40.387Z,484.69
2022-12-03T11:09:47.855Z,499.42
2022-12-03T11:11:06.663Z,456.06
2022-12-03T11:12:23.918Z,458.86
2022-12-03T11:13:49.877Z,446.81
2022-12-03T11:15:08.365Z,479.36
2022-12-03T11:16:13.755Z,480.48
2022-12-03T11:17:52.261Z,475.57
2022-12-03T11:19:02.516Z,450.70
2022-12-03T11:20:35.403Z,440.11
2022-12-03T11:22:20.909Z,456.11
2022-12-03T11:24:11.809Z,433.11
2022-12-03T11:25:52.212Z,427.29
2022-12-03T11:27:27.585Z,428.76
2022-12-03T11:28:56.023Z,419.25
2022-12-03T11:30:04.915Z,418.99
2022-12-03T11:31:41.074Z,424.75
2022-12-03T11:33:06.409Z,418.53
2022-12-03T11:34:44.856Z,438.74
2022-12-03T11:36:31.714Z,443.28
2022-12-03T11:37:43.549Z,453.12
2022-12-03T11:38:54.782Z,434.22
2022-12-03T11:40:39.156Z,442.99
2022-12-03T11:42:40.764Z,478.29
2022-12-03T11:44:08.629Z,483.35
2022-12-03T11:45:26.187Z,489.45
2022-12-03T11:46:45.045Z,499.88
2022-12-03T11:48:08.892Z,507.81
2022-12-03T11:49:37.652Z,488.78
2022-12-03T11:50:45.621Z,479.52
2022-12-03T11:51:52.395Z,471.17
2022-12-03T11:53:04.974Z,460.24
2022-12-03T11:54:21.841Z,473.38
2022-12-03T11:55:35.005Z,438.59
2022-12-03T11:56:49.693Z,440.82
2022-12-03T11:58:06.771Z,439.80
2022-12-03T11:59:14.458Z,442.52
2022-12-03T12:00:25.753Z,430.40
2022-12-03T12:01:42.044Z,412.02
2022-12-03T12:02:48.670Z,420.85
2022-12-03T12:03:52.186Z,431.77
2022-12-03T12:04:58.315Z,420.48
2022-12-03T12:06:08.085Z,420.64
2022-12-03T12:07:12.367Z,443.18
2022-12-03T12:08:22.579Z,428.01
2022-12-03T12:09:55.534Z,404.48
2022-12-03T12:11:02.385Z,445.41
2022-12-03T12:12:31.042Z,414.78
2022-12-03T12:13:58.408Z,439.68
2022-12-03T12:15:44.549Z,459.23
2022-12-03T12:16:55.362Z,416.88
2022-12-03T12:18:40.593Z,460.75
2022-12-03T12:19:54.074Z,475.09
2022-12-03T12:21:42.112Z,494.70
2022-12-03T12:22:48.433Z,484.69
2022-12-03T12:23:51.782Z,457.27
2022-12-03T12:25:00.808Z,443.60
2022-12-03T12:26:07.711Z,433.42
2022-12-03T12:27:17.239Z,439.55
2022-12-03T12:28:23.221Z,411.51
2022-12-03T12:29:26.890Z,400.97
2022-12-03T12:30:33.782Z,394.45
2022-12-03T12:31:39.908Z,397.46
2022-12-03T12:32:51.146Z,408.70
2022-12-03T12:33:54.892Z,396.71
2022-12-03T12:35:08.412Z,399.14
2022-12-03T12:36:13.031Z,401.12
2022-12-03T12:37:24.991Z,414.51
2022-12-03T12:38:31.886Z,417.26
2022-12-03T12:39:36.400Z,420.14
2022-12-03T12:40:45.839Z,437.15
2022-12-03T12:41:52.489Z,437.33
2022-12-03T12:43:05.564Z,444.94
2022-12-03T12:44:14.691Z,456.12
2022-12-03T12:45:25.342Z,437.93
2022-12-03T12:46:48.438Z,432.50
2022-12-03T12:48:16.288Z,440.27
2022-12-03T12:49:27.024Z,444.51
2022-12-03T12:50:35.978Z,456.39
2022-12-03T12:51:45.345Z,444.68
2022-12-03T12:53:05.084Z,443.64
2022-12-03T12:54:17.256Z,451.90
2022-12-03T12:55:25.764Z,431.47
2022-12-03T12:56:35.414Z,404.89
2022-12-03T12:57:38.966Z,418.65
2022-12-03T12:58:45.789Z,411.56
2022-12-03T12:59:51.147Z,407.17
2022-12-03T13:01:01.358Z,404.18
2022-12-03T13:02:44.688Z,414.21
2022-12-03T13:03:56.386Z,409.04
2022-12-03T13:05:03.133Z,406.57
2022-12-03T13:06:17.022Z,411.75
2022-12-03T13:07:20.965Z,424.64
2022-12-03T13:08:33.227Z,431.69
2022-12-03T13:09:39.324Z,429.42
2022-12-03T13:10:47.280Z,422.75
2022-12-03T13:11:58.855Z,441.09
2022-12-03T13:13:23.440Z,448.39
2022-12-03T13:14:37.881Z,439.79
2022-12-03T13:15:50.768Z,446.31
2022-12-03T13:17:03.882Z,447.03
2022-12-03T13:18:26.317Z,432.95
2022-12-03T13:20:00.583Z,434.89
2022-12-03T13:21:24.209Z,427.35
2022-12-03T13:22:32.107Z,428.73
2022-12-03T13:23:39.933Z,431.90
2022-12-03T13:24:50.870Z,414.43
2022-12-03T13:26:03.762Z,443.65
2022-12-03T13:27:29.754Z,450.69
2022-12-03T13:28:36.361Z,441.18
2022-12-03T13:29:43.498Z,440.61
2022-12-03T13:30:47.320Z,437.06
2022-12-03T13:31:58.432Z,432.61
2022-12-03T13:33:13.748Z,422.22
2022-12-03T13:34:26.501Z,428.96
2022-12-03T13:35:36.550Z,439.62
2022-12-03T13:36:52.021Z,446.62
2022-12-03T13:38:04.594Z,470.10
2022-12-03T13:39:19.932Z,478.36
2022-12-03T13:40:33.106Z,483.90
2022-12-03T13:41:51.744Z,468.89
2022-12-03T13:42:58.097Z,441.73
2022-12-03T13:44:01.974Z,466.95
2022-12-03T13:45:33.916Z,467.19
2022-12-03T13:46:38.246Z,445.52
2022-12-03T13:47:48.053Z,459.10
2022-12-03T13:48:58.704Z,518.06
2022-12-03T13:50:32.304Z,492.13
2022-12-03T13:51:38.528Z,484.54
2022-12-03T13:52:47.464Z,511.68
2022-12-03T13:53:51.124Z,530.83
2022-12-03T13:55:00.415Z,519.11
2022-12-03T13:56:25.277Z,503.05
2022-12-03T13:57:31.345Z,474.56
2022-12-03T13:58:35.782Z,474.80
2022-12-03T13:59:42.346Z,493.27
2022-12-03T14:00:46.371Z,483.68
2022-12-03T14:01:54.250Z,495.46
2022-12-03T14:02:58.018Z,517.87
2022-12-03T14:04:05.320Z,511.75
2022-12-03T14:05:10.713Z,498.89
2022-12-03T14:06:17.530Z,499.60
2022-12-03T14:07:23.666Z,519.91
2022-12-03T14:08:30.044Z,536.78
2022-12-03T14:09:37.107Z,547.40
2022-12-03T14:10:40.854Z,547.17
2022-12-03T14:12:01.221Z,529.31
2022-12-03T14:13:07.320Z,518.31
2022-12-03T14:14:13.394Z,539.07
2022-12-03T14:15:21.695Z,507.01
2022-12-03T14:16:25.343Z,489.69
2022-12-03T14:17:33.296Z,495.61
2022-12-03T14:18:38.752Z,468.85
2022-12-03T14:19:44.988Z,436.57
2022-12-03T14:20:52.411Z,459.61
2022-12-03T14:21:56.106Z,469.03
2022-12-03T14:23:04.988Z,482.76
2022-12-03T14:24:08.728Z,526.43
2022-12-03T14:25:15.650Z,480.61
2022-12-03T14:26:20.210Z,476.98
2022-12-03T14:27:27.810Z,485.86
2022-12-03T14:28:34.934Z,506.86